Time;durP1;ratioP1;P1;durP2;ratioP2;P2;SDS_P1;SDS_P2;PMS_P1;PMS_P2;Temp;Humidity;BMP_temperature;BMP_pressure;BME280_temperature;BME280_humidity;BME280_pressure;Samples;Min_cycle;Max_cycle;Signal;HPM_P1;HPM_P2
2021/04/15 00:00:29;;;;;;;1.53;0.30;;;4.90;82.20;;;;;;4881529;29;20045;-74
2021/04/15 00:02:59;;;;;;;0.77;0.30;;;4.80;82.40;;;;;;4884888;29;20085;-73
2021/04/15 00:05:29;;;;;;;0.80;0.20;;;4.80;82.50;;;;;;4895541;29;20088;-73
2021/04/15 00:07:56;;;;;;;0.77;0.27;;;4.80;82.50;;;;;;4879902;29;20044;-73
2021/04/15 00:10:28;;;;;;;0.70;0.20;;;4.80;82.50;;;;;;4897834;29;20048;-73
2021/04/15 00:12:54;;;;;;;0.77;0.40;;;4.90;82.50;;;;;;4878108;29;20045;-73
2021/04/15 00:15:22;;;;;;;1.10;0.30;;;4.90;82.60;;;;;;4879822;29;20053;-73
2021/04/15 00:17:48;;;;;;;2.40;0.30;;;4.90;82.60;;;;;;4896685;29;20044;-73
2021/04/15 00:20:16;;;;;;;1.00;0.20;;;4.80;82.50;;;;;;4897252;29;20068;-73
2021/04/15 00:22:43;;;;;;;2.67;0.50;;;4.80;82.60;;;;;;4897344;29;20036;-73
2021/04/15 00:25:10;;;;;;;0.60;0.20;;;4.80;82.50;;;;;;4881077;29;20100;-73
2021/04/15 00:27:37;;;;;;;1.00;0.20;;;4.80;82.60;;;;;;4884565;29;20057;-73
2021/04/15 00:30:07;;;;;;;0.80;0.20;;;4.80;82.60;;;;;;4876192;29;20489;-73
2021/04/15 00:32:33;;;;;;;0.83;0.30;;;4.80;82.60;;;;;;4895280;29;20445;-73
2021/04/15 00:35:00;;;;;;;1.47;0.20;;;4.80;82.70;;;;;;4862591;29;20112;-73
2021/04/15 00:37:27;;;;;;;1.23;0.20;;;4.80;82.90;;;;;;4868371;29;20049;-73
2021/04/15 00:39:53;;;;;;;0.97;0.20;;;4.80;83.00;;;;;;4896950;29;20048;-73
2021/04/15 00:42:20;;;;;;;2.77;0.47;;;4.70;83.00;;;;;;4897193;29;20549;-73
2021/04/15 00:44:47;;;;;;;0.87;0.20;;;4.70;83.70;;;;;;4897902;29;20036;-73
2021/04/15 00:47:21;;;;;;;0.47;0.13;;;4.70;83.30;;;;;;4890829;29;20045;-73
2021/04/15 00:50:13;;;;;;;0.50;0.10;;;4.70;83.40;;;;;;4873199;29;20037;-73
2021/04/15 00:52:48;;;;;;;0.40;0.10;;;4.70;83.50;;;;;;4871587;29;20044;-73
2021/04/15 00:55:20;;;;;;;0.93;0.10;;;4.70;83.70;;;;;;4880242;29;20520;-71
2021/04/15 00:57:48;;;;;;;0.33;0.10;;;4.70;83.70;;;;;;4897164;29;20051;-71
2021/04/15 01:00:22;;;;;;;1.17;0.20;;;4.70;83.80;;;;;;4892855;29;20497;-71
2021/04/15 01:02:48;;;;;;;0.73;0.20;;;4.70;84.00;;;;;;4852480;29;20041;-71
2021/04/15 01:05:23;;;;;;;0.77;0.10;;;4.60;84.10;;;;;;4891676;29;20078;-71
2021/04/15 01:07:51;;;;;;;0.57;0.10;;;4.70;84.30;;;;;;4895763;29;20045;-72
2021/04/15 01:10:19;;;;;;;0.07;0.00;;;4.70;84.40;;;;;;4895828;29;20074;-72
2021/04/15 01:12:46;;;;;;;0.30;0.10;;;4.70;84.50;;;;;;4876359;29;20478;-71
2021/04/15 01:15:36;;;;;;;1.90;0.30;;;4.70;84.60;;;;;;4879948;29;20101;-71
2021/04/15 01:18:23;;;;;;;0.00;0.00;;;4.70;84.60;;;;;;4864297;29;20053;-71
2021/04/15 01:21:27;;;;;;;0.10;0.00;;;4.70;84.80;;;;;;4869445;29;20100;-71
2021/04/15 01:23:57;;;;;;;0.13;0.00;;;4.70;84.90;;;;;;4854500;29;20047;-71
2021/04/15 01:26:42;;;;;;;0.10;0.00;;;4.70;84.90;;;;;;4883480;29;20041;-71
2021/04/15 01:29:30;;;;;;;0.10;0.00;;;4.70;85.00;;;;;;4894697;29;20493;-71
2021/04/15 01:32:06;;;;;;;0.37;0.00;;;4.60;85.00;;;;;;4859150;29;20067;-71
2021/04/15 01:34:57;;;;;;;0.20;0.10;;;4.50;85.10;;;;;;4893995;29;20139;-72
2021/04/15 01:37:31;;;;;;;0.13;0.10;;;4.50;85.30;;;;;;4872082;29;20390;-71
2021/04/15 01:40:14;;;;;;;0.17;0.00;;;4.40;85.40;;;;;;4892690;29;20105;-71
2021/04/15 01:42:57;;;;;;;0.08;0.00;;;4.40;85.50;;;;;;4890595;29;20053;-72
2021/04/15 01:45:24;;;;;;;0.00;0.00;;;4.30;85.60;;;;;;4868851;29;20056;-72
2021/04/15 01:48:08;;;;;;;0.00;0.00;;;4.30;85.80;;;;;;4880599;29;20063;-71
2021/04/15 01:50:39;;;;;;;0.10;0.00;;;4.30;85.90;;;;;;4879181;29;20044;-71
2021/04/15 01:53:14;;;;;;;0.10;0.00;;;4.30;86.00;;;;;;4893914;29;20065;-71
2021/04/15 01:55:47;;;;;;;0.10;0.00;;;4.30;86.10;;;;;;4896327;29;20036;-71
2021/04/15 01:58:20;;;;;;;0.13;0.10;;;4.20;86.10;;;;;;4885388;29;20045;-71
2021/04/15 02:00:50;;;;;;;0.10;0.00;;;4.20;86.20;;;;;;4871010;29;20045;-71
2021/04/15 02:03:28;;;;;;;0.10;0.00;;;4.20;86.30;;;;;;4892110;29;20049;-71
2021/04/15 02:06:00;;;;;;;0.00;0.00;;;4.20;86.30;;;;;;4896035;29;20411;-72
2021/04/15 02:08:30;;;;;;;0.10;0.00;;;4.20;86.30;;;;;;4892774;29;20171;-71
2021/04/15 02:11:02;;;;;;;1.43;0.10;;;4.30;86.30;;;;;;4876835;29;20057;-71
2021/04/15 02:13:33;;;;;;;0.00;0.00;;;4.30;86.40;;;;;;4897948;29;20052;-72
2021/04/15 02:16:05;;;;;;;0.35;0.10;;;4.40;86.40;;;;;;4875131;29;20057;-71
2021/04/15 02:18:44;;;;;;;0.00;0.00;;;4.40;86.50;;;;;;4883200;29;20055;-71
2021/04/15 02:21:28;;;;;;;0.17;0.03;;;4.40;86.50;;;;;;4890931;29;20405;-71
2021/04/15 02:24:00;;;;;;;;;;;4.50;86.50;;;;;;4898805;29;20045;-71
2021/04/15 02:26:33;;;;;;;0.00;0.00;;;4.50;86.60;;;;;;4871067;29;19928;-72
2021/04/15 02:29:07;;;;;;;0.10;0.00;;;4.50;86.30;;;;;;4893903;29;20045;-72
2021/04/15 02:31:41;;;;;;;0.73;0.10;;;4.50;86.20;;;;;;4892103;29;20060;-71
2021/04/15 02:34:14;;;;;;;0.00;0.00;;;4.50;86.20;;;;;;4873376;29;20144;-71
2021/04/15 02:36:54;;;;;;;0.10;0.03;;;4.60;86.20;;;;;;4882305;29;20465;-72
2021/04/15 02:39:30;;;;;;;1.07;0.00;;;4.60;86.20;;;;;;4882880;29;20493;-71
2021/04/15 02:41:59;;;;;;;0.83;0.10;;;4.60;86.40;;;;;;4871413;29;20100;-71
2021/04/15 02:44:30;;;;;;;0.00;0.00;;;4.50;86.50;;;;;;4880312;29;20413;-71
2021/04/15 02:47:06;;;;;;;0.23;0.10;;;4.60;86.70;;;;;;4881104;29;20389;-71
2021/04/15 02:49:34;;;;;;;0.37;0.07;;;4.60;86.80;;;;;;4896868;29;20369;-71
2021/04/15 02:52:23;;;;;;;0.50;0.20;;;4.60;86.90;;;;;;4888568;29;20045;-71
2021/04/15 02:55:05;;;;;;;0.63;0.10;;;4.60;86.80;;;;;;4887513;29;20045;-71
2021/04/15 02:57:39;;;;;;;0.00;0.00;;;4.70;86.80;;;;;;4899640;29;20081;-71
2021/04/15 03:00:14;;;;;;;0.07;0.00;;;4.70;86.90;;;;;;4896548;29;20381;-71
2021/04/15 03:02:48;;;;;;;0.13;0.00;;;4.70;87.00;;;;;;4892296;29;20049;-71
2021/04/15 03:05:22;;;;;;;0.73;0.10;;;4.70;87.10;;;;;;4899297;29;20044;-71
2021/04/15 03:07:53;;;;;;;0.43;0.10;;;4.70;87.10;;;;;;4897999;29;20041;-71
2021/04/15 03:10:31;;;;;;;0.33;0.10;;;4.70;87.20;;;;;;4893145;29;20045;-71
2021/04/15 03:13:19;;;;;;;0.30;0.00;;;4.70;87.30;;;;;;4882411;29;20056;-71
2021/04/15 03:15:54;;;;;;;0.43;0.00;;;4.80;87.30;;;;;;4893939;29;20039;-71
2021/04/15 03:18:48;;;;;;;0.63;0.10;;;4.80;87.20;;;;;;4881934;29;20095;-71
2021/04/15 03:21:38;;;;;;;0.10;0.00;;;4.80;87.10;;;;;;4875211;29;20072;-72
2021/04/15 03:24:20;;;;;;;0.20;0.10;;;4.70;87.10;;;;;;4879991;29;20041;-71
2021/04/15 03:27:10;;;;;;;0.30;0.10;;;4.60;87.10;;;;;;4898294;29;20109;-71
2021/04/15 03:29:46;;;;;;;0.40;0.10;;;4.50;87.30;;;;;;4895401;29;20049;-71
2021/04/15 03:32:52;;;;;;;0.80;0.10;;;4.40;87.60;;;;;;4894496;29;20048;-71
2021/04/15 03:35:52;;;;;;;0.40;0.10;;;4.30;87.70;;;;;;4887433;29;20061;-71
2021/04/15 03:38:32;;;;;;;0.83;0.10;;;4.20;87.80;;;;;;4885979;29;20044;-71
2021/04/15 03:41:09;;;;;;;0.20;0.10;;;4.10;88.00;;;;;;4874095;29;20442;-71
2021/04/15 03:43:55;;;;;;;0.30;0.10;;;4.10;88.20;;;;;;4872760;29;20055;-71
2021/04/15 03:46:29;;;;;;;0.80;0.10;;;4.00;88.30;;;;;;4895462;29;20049;-72
2021/04/15 03:49:04;;;;;;;0.20;0.10;;;4.00;88.30;;;;;;4898251;29;20127;-71
2021/04/15 03:51:40;;;;;;;0.47;0.10;;;3.90;88.30;;;;;;4894041;29;20048;-71
2021/04/15 03:54:20;;;;;;;0.30;0.17;;;3.90;88.50;;;;;;4898699;29;20052;-71
2021/04/15 03:56:57;;;;;;;0.47;0.10;;;3.80;88.50;;;;;;4896196;29;20398;-71
2021/04/15 03:59:53;;;;;;;0.50;0.10;;;3.80;88.70;;;;;;4897189;29;20045;-71
2021/04/15 04:02:46;;;;;;;0.20;0.10;;;3.70;88.70;;;;;;4891461;29;20045;-71
2021/04/15 04:05:22;;;;;;;0.52;0.10;;;3.70;88.80;;;;;;4879279;29;20049;-71
2021/04/15 04:07:53;;;;;;;1.43;0.10;;;3.70;88.80;;;;;;4897526;29;20033;-71
2021/04/15 04:10:24;;;;;;;1.47;0.20;;;3.70;88.80;;;;;;4878587;29;20132;-71
2021/04/15 04:13:07;;;;;;;0.27;0.10;;;3.70;88.80;;;;;;4880226;29;20461;-71
2021/04/15 04:15:39;;;;;;;0.40;0.10;;;3.70;88.90;;;;;;4871351;29;20049;-71
2021/04/15 04:18:19;;;;;;;0.50;0.20;;;3.70;89.00;;;;;;4892346;29;20052;-71
2021/04/15 04:20:46;;;;;;;0.20;0.10;;;3.70;89.00;;;;;;4897954;29;20493;-71
2021/04/15 04:23:37;;;;;;;0.50;0.20;;;3.70;89.00;;;;;;4879669;29;20104;-71
2021/04/15 04:26:23;;;;;;;3.40;0.20;;;3.70;88.90;;;;;;4897278;29;20497;-71
2021/04/15 04:29:13;;;;;;;0.43;0.20;;;3.60;88.90;;;;;;4879365;29;20052;-71
2021/04/15 04:31:43;;;;;;;0.80;0.20;;;3.60;89.10;;;;;;4853939;29;20116;-72
2021/04/15 04:34:16;;;;;;;0.23;0.07;;;3.50;89.10;;;;;;4873184;29;20053;-71
2021/04/15 04:36:44;;;;;;;;;;;3.50;89.20;;;;;;4850513;29;20048;-71
2021/04/15 04:39:14;;;;;;;0.80;0.13;;;3.50;89.30;;;;;;4854019;29;19984;-71
2021/04/15 04:42:07;;;;;;;0.33;0.20;;;3.40;89.20;;;;;;4876486;29;20049;-71
2021/04/15 04:44:46;;;;;;;2.37;0.63;;;3.50;89.30;;;;;;4837572;29;20137;-72
2021/04/15 04:47:37;;;;;;;0.60;0.20;;;3.50;89.30;;;;;;4877482;29;20048;-72
2021/04/15 04:50:23;;;;;;;0.30;0.20;;;3.60;89.30;;;;;;4878140;29;20045;-74
2021/04/15 04:53:24;;;;;;;0.40;0.10;;;3.70;89.30;;;;;;4852396;29;20077;-74
2021/04/15 04:56:16;;;;;;;0.73;0.20;;;3.80;89.10;;;;;;4865361;29;20084;-74
2021/04/15 04:58:53;;;;;;;0.43;0.10;;;3.80;89.60;;;;;;4881131;29;20049;-74
2021/04/15 05:01:20;;;;;;;0.60;0.20;;;3.90;88.90;;;;;;4868289;29;20409;-74
2021/04/15 05:03:56;;;;;;;0.90;0.20;;;4.00;88.90;;;;;;4864896;29;20087;-74
2021/04/15 05:06:28;;;;;;;0.90;0.30;;;4.00;88.90;;;;;;4865608;29;20042;-73
2021/04/15 05:09:20;;;;;;;0.95;0.20;;;4.00;88.80;;;;;;4862737;29;20434;-74
2021/04/15 05:11:50;;;;;;;0.47;0.10;;;4.00;88.80;;;;;;4859215;29;20048;-73
2021/04/15 05:14:20;;;;;;;0.73;0.10;;;4.00;88.80;;;;;;4834347;29;20513;-73
2021/04/15 05:16:48;;;;;;;0.33;0.20;;;4.00;88.90;;;;;;4875557;29;20049;-73
2021/04/15 05:19:16;;;;;;;0.60;0.20;;;4.00;88.90;;;;;;4861401;29;20046;-73
2021/04/15 05:21:45;;;;;;;1.27;0.40;;;4.00;88.90;;;;;;4856236;29;20055;-73
2021/04/15 05:24:25;;;;;;;1.30;0.30;;;4.00;89.00;;;;;;4875655;29;20064;-73
2021/04/15 05:26:53;;;;;;;0.77;0.20;;;4.10;89.10;;;;;;4859092;29;20053;-73
2021/04/15 05:29:27;;;;;;;0.50;0.20;;;4.10;89.10;;;;;;4869953;29;20481;-73
2021/04/15 05:31:55;;;;;;;0.87;0.23;;;4.10;89.00;;;;;;4879320;29;20400;-73
2021/04/15 05:34:33;;;;;;;0.77;0.20;;;4.10;89.10;;;;;;4883084;29;20044;-73
2021/04/15 05:37:04;;;;;;;0.83;0.37;;;4.20;89.00;;;;;;4865864;29;20132;-73
2021/04/15 05:39:31;;;;;;;0.50;0.20;;;4.20;89.00;;;;;;4876783;29;20452;-73
2021/04/15 05:42:29;;;;;;;1.23;0.40;;;4.30;89.60;;;;;;4893400;29;20490;-73
2021/04/15 05:45:17;;;;;;;1.07;0.30;;;4.30;89.00;;;;;;4893355;29;20048;-73
2021/04/15 05:47:44;;;;;;;1.00;0.40;;;4.30;89.10;;;;;;4892503;29;20044;-73
2021/04/15 05:50:23;;;;;;;0.80;0.30;;;4.30;89.20;;;;;;4896161;29;20048;-73
2021/04/15 05:53:11;;;;;;;0.87;0.53;;;4.40;89.20;;;;;;4879840;29;20052;-73
2021/04/15 05:55:42;;;;;;;1.00;0.30;;;4.40;89.10;;;;;;4874447;29;20049;-73
2021/04/15 05:58:17;;;;;;;0.90;0.40;;;4.50;89.10;;;;;;4873030;29;20068;-73
2021/04/15 06:01:03;;;;;;;0.93;0.40;;;4.50;89.00;;;;;;4897776;29;20109;-73
2021/04/15 06:03:35;;;;;;;0.97;0.40;;;4.60;89.00;;;;;;4903431;29;20040;-76
2021/04/15 06:06:06;;;;;;;;;;;4.70;88.80;;;;;;4894140;29;20552;-74
2021/04/15 06:08:42;;;;;;;1.47;0.57;;;4.80;88.90;;;;;;4904646;29;19939;-75
2021/04/15 06:11:28;;;;;;;1.07;0.30;;;4.70;88.60;;;;;;4887019;29;20408;-74
2021/04/15 06:14:02;;;;;;;1.13;0.40;;;4.70;88.60;;;;;;4892499;29;20052;-74
2021/04/15 06:16:34;;;;;;;1.03;0.43;;;4.70;88.70;;;;;;4898211;29;20041;-75
2021/04/15 06:19:11;;;;;;;1.23;0.40;;;4.70;88.80;;;;;;4894960;29;20509;-74
2021/04/15 06:21:44;;;;;;;1.10;0.40;;;4.80;88.80;;;;;;4898062;29;20041;-74
2021/04/15 06:24:16;;;;;;;2.08;0.50;;;5.00;88.80;;;;;;4885890;29;20045;-74
2021/04/15 06:26:53;;;;;;;3.08;0.55;;;5.10;88.70;;;;;;4887624;29;20389;-74
2021/04/15 06:29:29;;;;;;;2.03;0.70;;;5.20;88.60;;;;;;4902348;29;20166;-73
2021/04/15 06:31:57;;;;;;;1.37;0.40;;;5.30;88.40;;;;;;4902539;29;20513;-73
2021/04/15 06:34:27;;;;;;;1.67;0.50;;;5.30;88.30;;;;;;4875213;29;20131;-72
2021/04/15 06:37:09;;;;;;;1.53;0.50;;;5.30;88.30;;;;;;4885738;29;20052;-73
2021/04/15 06:39:43;;;;;;;2.60;0.50;;;5.40;88.30;;;;;;4896738;29;20057;-74
2021/04/15 06:42:21;;;;;;;2.37;0.50;;;5.40;88.30;;;;;;4900366;29;20067;-75
2021/04/15 06:45:17;;;;;;;2.00;0.70;;;5.40;88.40;;;;;;4899718;29;20036;-75
2021/04/15 06:47:56;;;;;;;1.23;0.50;;;5.40;88.50;;;;;;4878337;29;20103;-75
2021/04/15 06:50:44;;;;;;;1.33;0.50;;;5.40;88.50;;;;;;4891487;29;20049;-74
2021/04/15 06:53:48;;;;;;;1.80;0.73;;;5.40;88.50;;;;;;4869468;29;20048;-74
2021/04/15 06:57:12;;;;;;;1.53;0.47;;;5.40;88.50;;;;;;4886440;29;20484;-74
2021/04/15 06:59:39;;;;;;;3.03;0.52;;;5.40;88.60;;;;;;4806214;29;20506;-74
2021/04/15 07:02:34;;;;;;;2.47;0.70;;;5.40;88.70;;;;;;4800876;29;20089;-74
2021/04/15 07:05:11;;;;;;;1.40;0.63;;;5.40;88.50;;;;;;4849383;29;20117;-74
2021/04/15 07:07:50;;;;;;;2.33;0.50;;;5.40;88.50;;;;;;4892565;29;20535;-73
2021/04/15 07:10:59;;;;;;;1.63;0.60;;;5.50;88.60;;;;;;4896965;29;20492;-75
2021/04/15 07:13:39;;;;;;;1.93;0.50;;;5.70;88.40;;;;;;4872936;29;20061;-71
2021/04/15 07:16:22;;;;;;;2.80;0.70;;;5.80;88.30;;;;;;4881790;29;20040;-72
2021/04/15 07:18:52;;;;;;;2.23;0.60;;;5.80;88.00;;;;;;4899116;29;20048;-73
2021/04/15 07:21:19;;;;;;;3.03;0.80;;;5.80;88.00;;;;;;4896643;29;20476;-74
2021/04/15 07:23:54;;;;;;;1.83;0.60;;;5.80;88.00;;;;;;4895345;29;20041;-73
2021/04/15 07:26:50;;;;;;;2.07;0.50;;;5.80;88.10;;;;;;4882151;29;20037;-72
2021/04/15 07:29:35;;;;;;;1.10;0.40;;;5.80;88.10;;;;;;4895824;29;20053;-74
2021/04/15 07:32:29;;;;;;;2.47;0.70;;;6.00;88.10;;;;;;4885952;29;20063;-75
2021/04/15 07:35:27;;;;;;;1.10;0.40;;;6.20;87.80;;;;;;4877487;29;20123;-74
2021/04/15 07:38:18;;;;;;;1.37;0.33;;;6.30;87.20;;;;;;4903009;29;20048;-73
2021/04/15 07:40:53;;;;;;;0.97;0.40;;;6.30;87.00;;;;;;4881514;29;20056;-73
2021/04/15 07:43:44;;;;;;;0.90;0.40;;;6.30;87.20;;;;;;4898477;29;20033;-74
2021/04/15 07:46:45;;;;;;;1.53;0.40;;;6.30;87.10;;;;;;4901889;29;20052;-73
2021/04/15 07:49:27;;;;;;;1.30;0.50;;;6.30;87.20;;;;;;4894794;29;20112;-74
2021/04/15 07:52:30;;;;;;;1.30;0.50;;;6.40;87.40;;;;;;4898231;29;20052;-74
2021/04/15 07:55:13;;;;;;;0.77;0.35;;;6.50;87.40;;;;;;4899083;29;20120;-75
2021/04/15 07:57:58;;;;;;;0.90;0.30;;;6.60;87.30;;;;;;4900174;29;20056;-75
2021/04/15 08:00:54;;;;;;;1.20;0.50;;;6.70;87.20;;;;;;4882239;29;20084;-76
2021/04/15 08:04:10;;;;;;;1.43;0.50;;;6.80;87.00;;;;;;4896423;29;20136;-75
2021/04/15 08:07:14;;;;;;;2.87;0.50;;;6.90;86.60;;;;;;4871290;29;20484;-75
2021/04/15 08:10:11;;;;;;;1.73;0.50;;;6.90;86.70;;;;;;4878400;29;20044;-74
2021/04/15 08:12:59;;;;;;;2.83;0.57;;;6.90;86.80;;;;;;4887431;29;20112;-74
2021/04/15 08:16:00;;;;;;;1.30;0.53;;;6.80;86.60;;;;;;4865685;29;20049;-74
2021/04/15 08:19:04;;;;;;;1.77;0.70;;;6.80;86.80;;;;;;4896594;29;20116;-73
2021/04/15 08:22:01;;;;;;;1.47;0.50;;;6.80;86.80;;;;;;4861483;29;20049;-74
2021/04/15 08:24:56;;;;;;;2.27;0.80;;;6.80;86.80;;;;;;4895806;29;20089;-73
2021/04/15 08:27:47;;;;;;;1.63;0.50;;;6.90;86.80;;;;;;4897978;29;20053;-73
2021/04/15 08:30:45;;;;;;;1.17;0.50;;;7.00;86.70;;;;;;4863220;29;20085;-73
2021/04/15 08:33:21;;;;;;;1.80;0.40;;;7.00;86.30;;;;;;4880390;29;20061;-75
2021/04/15 08:36:22;;;;;;;1.00;0.43;;;6.90;86.30;;;;;;4895338;29;20041;-74
2021/04/15 08:39:10;;;;;;;1.97;0.43;;;6.90;86.10;;;;;;4889093;29;20052;-75
2021/04/15 08:42:05;;;;;;;2.60;0.63;;;6.80;86.10;;;;;;4882706;29;20049;-75
2021/04/15 08:45:00;;;;;;;1.50;0.50;;;6.90;86.20;;;;;;4881575;29;20076;-77
2021/04/15 08:48:04;;;;;;;1.53;0.53;;;6.90;86.00;;;;;;4873004;29;20049;-77
2021/04/15 08:50:38;;;;;;;1.23;0.50;;;6.90;85.90;;;;;;4881018;29;20434;-72
2021/04/15 08:53:20;;;;;;;1.87;0.67;;;7.00;85.90;;;;;;4878885;29;20040;-72
2021/04/15 08:56:26;;;;;;;1.90;0.43;;;7.00;85.60;;;;;;4879776;29;20140;-72
2021/04/15 08:59:09;;;;;;;1.73;0.40;;;7.10;85.60;;;;;;4874560;29;20068;-72
2021/04/15 09:01:50;;;;;;;0.57;0.30;;;7.20;85.50;;;;;;4886963;29;20073;-72
2021/04/15 09:04:22;;;;;;;0.77;0.30;;;7.30;85.30;;;;;;4888793;29;20044;-72
2021/04/15 09:07:13;;;;;;;1.20;0.30;;;7.40;85.20;;;;;;4895475;29;20052;-72
2021/04/15 09:10:06;;;;;;;1.33;0.30;;;7.60;84.90;;;;;;4873189;29;20056;-72
2021/04/15 09:12:52;;;;;;;0.93;0.10;;;7.70;84.80;;;;;;4887030;29;20045;-76
2021/04/15 09:15:40;;;;;;;0.50;0.30;;;7.80;84.80;;;;;;4886113;29;20393;-77
2021/04/15 09:18:15;;;;;;;1.17;0.20;;;7.90;84.50;;;;;;4872534;29;20187;-77
2021/04/15 09:21:00;;;;;;;0.57;0.20;;;8.00;84.30;;;;;;4890724;29;20083;-77
2021/04/15 09:23:46;;;;;;;0.93;0.40;;;8.10;84.20;;;;;;4891948;29;20064;-77
2021/04/15 09:26:21;;;;;;;0.70;0.40;;;8.20;83.90;;;;;;4877560;29;20067;-77
2021/04/15 09:29:29;;;;;;;1.07;0.30;;;8.20;83.50;;;;;;4860207;29;20238;-77
2021/04/15 09:32:02;;;;;;;1.13;0.30;;;8.30;83.10;;;;;;4874863;29;20569;-77
2021/04/15 09:35:08;;;;;;;1.17;0.20;;;8.40;83.20;;;;;;4860191;29;20059;-78
2021/04/15 09:37:43;;;;;;;0.70;0.30;;;8.60;82.90;;;;;;4871303;29;20044;-78
2021/04/15 09:40:44;;;;;;;1.67;0.40;;;8.70;83.50;;;;;;4864929;29;20120;-77
2021/04/15 09:43:18;;;;;;;1.00;0.45;;;9.00;82.50;;;;;;4862826;29;20443;-75
2021/04/15 09:46:07;;;;;;;2.05;0.68;;;9.10;81.80;;;;;;4877099;29;20116;-77
2021/04/15 09:49:10;;;;;;;1.00;0.50;;;8.90;81.70;;;;;;4874198;29;20045;-75
2021/04/15 09:51:39;;;;;;;;;;;8.70;81.50;;;;;;4876738;29;20053;-74
2021/04/15 09:54:29;;;;;;;0.93;0.50;;;8.50;82.40;;;;;;4879039;29;20361;-74
2021/04/15 09:57:36;;;;;;;2.47;0.43;;;8.40;82.20;;;;;;4878694;29;20104;-74
2021/04/15 10:00:15;;;;;;;0.98;0.52;;;8.40;82.10;;;;;;4879481;29;20052;-74
2021/04/15 10:03:07;;;;;;;1.95;0.60;;;8.60;82.00;;;;;;4878901;29;20045;-74
2021/04/15 10:05:53;;;;;;;0.93;0.50;;;8.60;81.60;;;;;;4878840;29;20112;-74
2021/04/15 10:08:55;;;;;;;3.20;0.57;;;8.70;81.50;;;;;;4878472;29;20045;-74
2021/04/15 10:11:49;;;;;;;2.38;0.40;;;8.80;81.40;;;;;;4829140;29;20507;-74
2021/04/15 10:14:35;;;;;;;0.80;0.30;;;8.90;81.30;;;;;;4859589;29;20053;-75
2021/04/15 10:17:30;;;;;;;1.67;0.52;;;9.00;81.40;;;;;;4878412;29;20087;-74
2021/04/15 10:20:41;;;;;;;0.82;0.35;;;9.10;81.30;;;;;;4886344;29;20082;-74
2021/04/15 10:23:29;;;;;;;0.90;0.30;;;9.20;81.20;;;;;;4812755;29;20058;-74
2021/04/15 10:26:45;;;;;;;0.70;0.30;;;9.30;81.10;;;;;;4820852;29;20051;-74
2021/04/15 10:29:20;;;;;;;1.33;0.40;;;9.40;81.00;;;;;;4881369;29;20509;-74
2021/04/15 10:31:59;;;;;;;0.70;0.30;;;9.50;81.10;;;;;;4878475;29;20124;-74
2021/04/15 10:34:47;;;;;;;1.00;0.38;;;9.50;80.80;;;;;;4879818;29;20097;-75
2021/04/15 10:37:35;;;;;;;1.02;0.38;;;9.50;80.60;;;;;;4881988;29;20049;-74
2021/04/15 10:40:52;;;;;;;1.13;0.40;;;9.50;80.60;;;;;;4880657;29;20045;-74
2021/04/15 10:43:25;;;;;;;0.77;0.40;;;9.30;80.60;;;;;;4881588;29;20041;-74
2021/04/15 10:46:20;;;;;;;0.60;0.20;;;9.30;81.10;;;;;;4880142;29;20048;-72
2021/04/15 10:49:03;;;;;;;0.73;0.30;;;9.40;80.80;;;;;;4866029;29;20053;-72
2021/04/15 10:51:37;;;;;;;0.75;0.20;;;9.70;80.30;;;;;;4876814;29;20124;-71
2021/04/15 10:54:23;;;;;;;0.70;0.30;;;9.80;79.90;;;;;;4864364;29;20053;-72
2021/04/15 10:56:54;;;;;;;0.88;0.30;;;9.90;79.50;;;;;;4880369;29;20053;-72
2021/04/15 10:59:36;;;;;;;2.22;0.50;;;9.90;79.60;;;;;;4880712;29;20049;-71
2021/04/15 11:02:21;;;;;;;0.97;0.63;;;9.90;79.40;;;;;;4878689;29;20049;-72
2021/04/15 11:04:49;;;;;;;1.10;0.40;;;9.90;79.40;;;;;;4881776;29;20041;-71
2021/04/15 11:07:26;;;;;;;1.20;0.70;;;10.40;78.50;;;;;;4876573;29;20399;-71
2021/04/15 11:09:56;;;;;;;0.63;0.35;;;10.60;76.90;;;;;;4874773;29;20045;-71
2021/04/15 11:12:30;;;;;;;1.63;0.40;;;10.40;77.00;;;;;;4857394;29;20557;-71
2021/04/15 11:15:10;;;;;;;1.83;0.40;;;10.40;77.50;;;;;;4886236;29;20119;-72
2021/04/15 11:17:43;;;;;;;1.05;0.47;;;10.60;77.60;;;;;;4869785;29;20101;-71
2021/04/15 11:20:13;;;;;;;;;;;10.80;77.10;;;;;;4878559;29;20105;-70
2021/04/15 11:22:50;;;;;;;2.40;1.20;;;10.80;77.50;;;;;;4875868;29;20360;-72
2021/04/15 11:25:20;;;;;;;1.35;0.50;;;10.80;77.50;;;;;;4862618;29;20064;-71
2021/04/15 11:27:48;;;;;;;2.60;0.50;;;11.10;77.80;;;;;;4854449;29;20049;-72
2021/04/15 11:30:43;;;;;;;1.08;0.50;;;11.30;76.20;;;;;;4896207;29;20115;-71
2021/04/15 11:33:42;;;;;;;1.85;0.60;;;11.40;75.20;;;;;;4880412;29;20063;-73
2021/04/15 11:36:22;;;;;;;1.17;0.50;;;11.90;74.60;;;;;;4898022;29;20051;-72
2021/04/15 11:39:09;;;;;;;1.23;0.50;;;12.90;71.50;;;;;;4898724;29;20056;-73
2021/04/15 11:41:51;;;;;;;2.08;0.60;;;13.70;69.00;;;;;;4878140;29;20047;-73
2021/04/15 11:44:26;;;;;;;1.27;0.50;;;14.00;66.90;;;;;;4881604;29;20068;-73
2021/04/15 11:47:12;;;;;;;0.77;0.30;;;14.50;66.40;;;;;;4880435;29;20053;-73
2021/04/15 11:49:41;;;;;;;0.73;0.30;;;14.90;65.10;;;;;;4883368;29;20089;-73
2021/04/15 11:52:08;;;;;;;1.10;0.30;;;15.50;65.00;;;;;;4881823;29;20044;-72
2021/04/15 11:54:52;;;;;;;2.50;0.55;;;16.00;63.90;;;;;;4892771;29;20071;-72
2021/04/15 11:57:19;;;;;;;1.33;0.43;;;16.40;62.80;;;;;;4875233;29;20481;-77
2021/04/15 12:00:01;;;;;;;0.63;0.30;;;16.70;62.90;;;;;;4882699;29;20047;-76
2021/04/15 12:03:10;;;;;;;1.25;0.30;;;16.70;63.40;;;;;;4898373;29;20048;-75
2021/04/15 12:05:41;;;;;;;0.65;0.30;;;15.60;63.70;;;;;;4886460;29;20041;-76
2021/04/15 12:08:34;;;;;;;0.80;0.40;;;14.50;65.90;;;;;;4887549;29;20044;-76
2021/04/15 12:11:25;;;;;;;1.58;0.82;;;13.90;67.60;;;;;;4884253;29;20045;-76
2021/04/15 12:13:58;;;;;;;1.00;0.40;;;13.30;68.40;;;;;;4897446;29;20048;-76
2021/04/15 12:16:51;;;;;;;1.45;0.50;;;12.90;68.90;;;;;;4880293;29;20421;-76
2021/04/15 12:19:31;;;;;;;1.15;0.45;;;12.60;68.80;;;;;;4898969;29;20488;-75
2021/04/15 12:22:35;;;;;;;1.05;0.40;;;12.40;68.50;;;;;;4898180;29;20044;-74
2021/04/15 12:25:15;;;;;;;3.05;0.70;;;12.30;69.00;;;;;;4899123;29;20051;-75
2021/04/15 12:27:48;;;;;;;1.80;0.50;;;12.10;68.70;;;;;;4881412;29;20658;-76
2021/04/15 12:30:26;;;;;;;1.10;0.40;;;12.10;69.20;;;;;;4898271;29;20540;-75
2021/04/15 12:33:07;;;;;;;1.65;0.50;;;12.20;68.90;;;;;;4881942;29;20053;-76
2021/04/15 12:35:55;;;;;;;1.05;0.40;;;12.20;68.50;;;;;;4889542;29;20053;-76
2021/04/15 12:38:24;;;;;;;1.73;0.80;;;12.20;68.00;;;;;;4872124;29;20059;-76
2021/04/15 12:40:56;;;;;;;2.75;0.77;;;12.20;68.00;;;;;;4896312;29;20053;-76
2021/04/15 12:43:30;;;;;;;0.98;0.47;;;12.20;68.10;;;;;;4868470;29;20051;-75
2021/04/15 12:45:59;;;;;;;1.90;0.60;;;12.30;68.70;;;;;;4880303;29;20112;-76
2021/04/15 12:48:50;;;;;;;1.33;0.70;;;12.50;68.00;;;;;;4891237;29;20036;-76
2021/04/15 12:51:22;;;;;;;2.45;0.93;;;12.50;67.40;;;;;;4882855;29;20409;-76
2021/04/15 12:53:50;;;;;;;1.13;0.50;;;12.40;67.50;;;;;;4877985;29;20044;-74
2021/04/15 12:56:21;;;;;;;1.60;0.50;;;12.20;67.90;;;;;;4892015;29;20433;-75
2021/04/15 12:58:48;;;;;;;0.90;0.40;;;12.00;68.30;;;;;;4884453;29;20052;-76
2021/04/15 13:01:15;;;;;;;1.67;0.60;;;11.80;68.50;;;;;;4850279;29;20043;-76
2021/04/15 13:03:46;;;;;;;0.93;0.50;;;11.60;67.00;;;;;;4864900;29;20426;-75
2021/04/15 13:06:18;;;;;;;1.33;0.50;;;11.40;67.90;;;;;;4878344;29;20037;-75
2021/04/15 13:08:46;;;;;;;1.33;0.70;;;11.20;67.40;;;;;;4879496;29;20033;-75
2021/04/15 13:11:16;;;;;;;1.55;0.52;;;11.10;67.50;;;;;;4882902;29;20049;-76
2021/04/15 13:13:44;;;;;;;1.95;0.70;;;11.10;67.90;;;;;;4897890;29;20063;-75
2021/04/15 13:16:34;;;;;;;1.13;0.52;;;11.10;68.10;;;;;;4876221;29;20048;-75
2021/04/15 13:19:00;;;;;;;1.15;0.50;;;11.30;68.20;;;;;;4894881;29;20040;-75
2021/04/15 13:21:33;;;;;;;0.98;0.50;;;11.40;68.40;;;;;;4874195;29;20052;-75
2021/04/15 13:24:01;;;;;;;1.73;0.50;;;11.60;68.20;;;;;;4892597;29;20078;-75
2021/04/15 13:26:38;;;;;;;0.80;0.40;;;11.70;68.30;;;;;;4875549;29;20089;-75
2021/04/15 13:29:24;;;;;;;1.35;0.70;;;11.90;68.10;;;;;;4877073;29;20144;-75
2021/04/15 13:31:55;;;;;;;2.58;0.73;;;11.90;67.70;;;;;;4873289;29;20087;-75
2021/04/15 13:34:49;;;;;;;0.52;0.35;;;11.80;67.00;;;;;;4880423;29;20086;-76
2021/04/15 13:37:31;;;;;;;1.13;0.43;;;11.80;67.40;;;;;;4872425;29;20386;-75
2021/04/15 13:40:39;;;;;;;1.10;0.40;;;11.90;67.40;;;;;;4875920;29;20064;-75
2021/04/15 13:43:32;;;;;;;1.05;0.30;;;12.00;66.80;;;;;;4852225;29;20042;-74
2021/04/15 13:46:25;;;;;;;0.90;0.40;;;12.10;67.10;;;;;;4883128;29;20087;-75
2021/04/15 13:49:20;;;;;;;1.10;0.50;;;12.40;67.10;;;;;;4882503;29;20040;-75
2021/04/15 13:51:55;;;;;;;1.42;0.50;;;12.50;67.00;;;;;;4893661;29;20033;-75
2021/04/15 13:54:32;;;;;;;2.17;0.70;;;12.40;67.00;;;;;;4864872;29;20040;-75
2021/04/15 13:57:18;;;;;;;1.10;0.50;;;12.30;66.80;;;;;;4892357;29;20394;-75
2021/04/15 13:59:58;;;;;;;1.23;0.52;;;12.10;67.00;;;;;;4874831;29;20566;-74
2021/04/15 14:02:25;;;;;;;1.13;0.50;;;12.00;67.60;;;;;;4899237;29;20453;-75
2021/04/15 14:04:57;;;;;;;0.75;0.40;;;11.80;67.70;;;;;;4895880;29;20032;-75